Terminal Aerodrome Forecast
Issued by NWS

Home | Current Version | Previous Version | Text Only | Print | Product List | Glossary On
Versions: 1 2 3 4 5 6 7 8 9 10 11 12 13 14 15 16
000
FTUS43 KFGF 291100
TAFDVL
TAF
KDVL 291132Z 2912/3012 18010KT P6SM BKN008
     FM291400 28009KT P6SM BKN015
     FM291700 35013G21KT P6SM SCT025 BKN050
      TEMPO 2919/2922 VRB25KT 4SM -TSRA OVC025CB
     FM300100 02006KT P6SM SCT060
      AMD LTD TO CLD VIS AND WIND=

USA.gov is the U.S. government's official web portal to all federal, state and local government web resources and services.